• Join FlightAware (Why Join?)
  • Login
  • US Flag 
12:42PM EST


 

Airport Tracker/Info


-or-


 

Live Flight TrackerFlight Track Log ✈ ASQ5745 ✈ 12-Jul-2013 ✈ KIAD - KALB

Flight Track Log - Related Links

Times and Time Zones

All times are in EDT time to prevent confusion due to time zone crossing. See the ASQ5745 flight status page for this flight to view local times or setup timezone preferences in your user account.

Time Position Orientation Groundspeed Altitude Reporting Facility
EDT Latitude Longitude Course Direction KTS MPH feet Rate Location/Type
08:26AM 38.9833 -77.4500 North 198 228 1,700  Level Potomac TRACON
08:27AM 39.0333 -77.4833 333° Northwest 259 298 3,900 2,580 Climbing Potomac TRACON
08:28AM 39.2193 -77.4500 North  Level FlightAware Approximate
08:29AM 39.3146 -77.4500 North  Level FlightAware Approximate
08:29AM 39.2133 -77.4800 North 272 313 10,300  Level Washington Center
08:30AM 39.4099 -77.4500 North  Level FlightAware Approximate
08:30AM 39.3008 -77.4744 North 289 333 11,600  Level Washington Center
08:31AM 39.5052 -77.4500 North  Level FlightAware Approximate
08:31AM 39.3989 -77.4717 North 321 369 13,300  Level Washington Center
08:32AM 39.4992 -77.4661 North 346 398 14,900 1,560 Climbing Washington Center
08:34AM 39.6864 -77.4536 North 392 451 17,800 1,380 Climbing New York Center
08:35AM 39.7825 -77.4519 North 386 444 19,000 1,140 Climbing New York Center
08:36AM 39.9086 -77.3964 19° North 381 438 20,100 960 Climbing New York Center
08:37AM 40.0119 -77.3408 22° Northeast 386 444 21,000 900 Climbing New York Center
08:38AM 40.1194 -77.2806 23° Northeast 400 460 22,000 1,020 Climbing New York Center
08:39AM 40.2119 -77.2294 23° Northeast 400 460 23,100 960 Climbing New York Center
08:40AM 40.3239 -77.1661 23° Northeast 400 460 24,000 1,020 Climbing New York Center
08:41AM 40.4183 -77.1150 22° Northeast 400 460 25,200 960 Climbing New York Center
08:42AM 40.5256 -77.0592 22° Northeast 400 460 25,900 660 Climbing New York Center
08:43AM 40.6306 -77.0006 23° Northeast 405 466 26,600 540 Climbing New York Center
08:44AM 40.7486 -77.0167 354° North 405 466 27,000 180 Climbing New York Center
08:45AM 40.8606 -77.0681 341° North 405 466 27,000  Level New York Center
08:46AM 40.9689 -77.1056 345° North 405 466 27,000  Level New York Center
08:47AM 41.0819 -77.0997 North 410 472 27,000  Level New York Center
08:48AM 41.1944 -77.0964 North 403 464 27,000  Level New York Center
08:49AM 41.2878 -77.0278 29° Northeast 380 437 27,000  Level New York Center
08:50AM 41.3761 -76.9336 39° Northeast 386 444 27,000  Level New York Center
08:51AM 41.4681 -76.8453 36° Northeast 397 457 27,000  Level New York Center
08:52AM 41.5650 -76.7431 38° Northeast 404 465 27,000  Level New York Center
08:53AM 41.6481 -76.6617 36° Northeast 404 465 27,000  Level New York Center
08:54AM 41.7381 -76.5722 37° Northeast 409 471 27,000  Level New York Center
08:55AM 41.8367 -76.4694 38° Northeast 409 471 27,000 -120 Level New York Center
08:56AM 41.9089 -76.3950 37° Northeast 409 471 26,800 -780 Descending New York Center
08:58AM 42.0636 -76.2381 37° Northeast 419 482 25,100 -1,080 Descending Boston Center
08:59AM 42.1458 -76.1533 37° Northeast 389 448 24,100 -600 Descending Boston Center
09:00AM 42.1956 -76.0331 61° Northeast 359 413 24,000 -60 Descending Boston Center
09:01AM 42.2433 -75.9039 63° Northeast 364 419 24,000  Level Boston Center
09:02AM 42.2869 -75.7717 66° East 372 428 24,000  Level Boston Center
09:03AM 42.3436 -75.6061 65° Northeast 377 434 24,000 -420 Level Boston Center
09:04AM 42.3958 -75.4511 65° Northeast 372 428 23,200 -960 Descending Boston Center
09:05AM 42.4347 -75.3236 68° East 372 428 22,100 -960 Descending Boston Center
09:06AM 42.4400 -75.1917 87° East 356 410 21,100 -1,260 Descending Boston Center
09:07AM 42.4458 -75.0344 87° East 350 403 19,400 -1,800 Descending Boston Center
09:08AM 42.4489 -74.8994 88° East 350 403 17,500 -1,800 Descending Boston Center
09:09AM 42.4508 -74.7981 88° East 343 395 15,900 -2,040 Descending Boston Center
09:10AM 42.4531 -74.6997 88° East 347 399 14,400 -2,100 Descending Boston Center
09:10AM 42.4547 -74.6097 89° East 343 395 13,300 -1,440 Descending Boston Center
09:11AM 42.4750 -74.5317 71° East 331 381 12,300 -1,560 Descending Boston Center
09:12AM 42.5125 -74.4147 66° East 310 357 10,600 -1,620 Descending Boston Center
09:13AM 42.5286 -74.3164 77° East 299 344 9,100 -1,800 Descending Boston Center
09:14AM 42.5492 -74.2044 76° East 287 330 7,100 -1,800 Descending Boston Center
09:15AM 42.5714 -74.1203 70° East 270 311 5,500 -1,620 Descending Boston Center
09:16AM 42.6039 -74.0394 61° Northeast 243 280 3,900 -1,380 Descending Boston Center
09:17AM 42.6361 -73.9642 60° Northeast 225 259 2,800 -1,140 Descending Boston Center